sensor_id;sensor_type;location;lat;lon;timestamp;P1;durP1;ratioP1;P2;durP2;ratioP2
25163;SDS011;13440;50.860;13.662;2022-12-18T00:00:30;15.63;;;6.50;;
25163;SDS011;13440;50.860;13.662;2022-12-18T00:02:56;12.88;;;6.18;;
25163;SDS011;13440;50.860;13.662;2022-12-18T00:05:21;13.85;;;7.07;;
25163;SDS011;13440;50.860;13.662;2022-12-18T00:07:46;14.55;;;6.47;;
25163;SDS011;13440;50.860;13.662;2022-12-18T00:10:12;13.35;;;6.25;;
25163;SDS011;13440;50.860;13.662;2022-12-18T00:12:37;17.35;;;7.00;;
25163;SDS011;13440;50.860;13.662;2022-12-18T00:15:03;11.30;;;5.75;;
25163;SDS011;13440;50.860;13.662;2022-12-18T00:17:28;12.45;;;5.30;;
25163;SDS011;13440;50.860;13.662;2022-12-18T00:19:54;13.13;;;6.43;;
25163;SDS011;13440;50.860;13.662;2022-12-18T00:22:19;12.77;;;6.25;;
25163;SDS011;13440;50.860;13.662;2022-12-18T00:24:45;15.45;;;6.63;;
25163;SDS011;13440;50.860;13.662;2022-12-18T00:27:10;11.65;;;6.03;;
25163;SDS011;13440;50.860;13.662;2022-12-18T00:29:35;12.05;;;5.75;;
25163;SDS011;13440;50.860;13.662;2022-12-18T00:32:01;12.98;;;5.10;;
25163;SDS011;13440;50.860;13.662;2022-12-18T00:34:26;13.13;;;5.40;;
25163;SDS011;13440;50.860;13.662;2022-12-18T00:36:52;11.07;;;5.65;;
25163;SDS011;13440;50.860;13.662;2022-12-18T00:39:17;11.07;;;5.40;;
25163;SDS011;13440;50.860;13.662;2022-12-18T00:41:43;11.13;;;4.97;;
25163;SDS011;13440;50.860;13.662;2022-12-18T00:44:27;11.18;;;4.65;;
25163;SDS011;13440;50.860;13.662;2022-12-18T00:46:53;10.68;;;5.07;;
25163;SDS011;13440;50.860;13.662;2022-12-18T00:49:18;13.18;;;5.78;;
25163;SDS011;13440;50.860;13.662;2022-12-18T00:51:44;11.57;;;5.18;;
25163;SDS011;13440;50.860;13.662;2022-12-18T00:54:10;10.38;;;5.00;;
25163;SDS011;13440;50.860;13.662;2022-12-18T00:56:36;9.32;;;4.10;;
25163;SDS011;13440;50.860;13.662;2022-12-18T00:59:03;11.90;;;4.95;;
25163;SDS011;13440;50.860;13.662;2022-12-18T01:01:28;10.10;;;5.10;;
25163;SDS011;13440;50.860;13.662;2022-12-18T01:03:53;10.30;;;5.03;;
25163;SDS011;13440;50.860;13.662;2022-12-18T01:06:22;12.57;;;5.53;;
25163;SDS011;13440;50.860;13.662;2022-12-18T01:08:48;13.70;;;5.40;;
25163;SDS011;13440;50.860;13.662;2022-12-18T01:11:15;10.30;;;4.93;;
25163;SDS011;13440;50.860;13.662;2022-12-18T01:13:42;10.00;;;4.63;;
25163;SDS011;13440;50.860;13.662;2022-12-18T01:16:08;9.77;;;4.50;;
25163;SDS011;13440;50.860;13.662;2022-12-18T01:18:36;10.73;;;4.72;;
25163;SDS011;13440;50.860;13.662;2022-12-18T01:21:05;12.95;;;5.20;;
25163;SDS011;13440;50.860;13.662;2022-12-18T01:23:35;10.48;;;4.47;;
25163;SDS011;13440;50.860;13.662;2022-12-18T01:26:05;10.00;;;4.25;;
25163;SDS011;13440;50.860;13.662;2022-12-18T01:28:35;8.93;;;4.05;;
25163;SDS011;13440;50.860;13.662;2022-12-18T01:31:14;11.48;;;4.43;;
25163;SDS011;13440;50.860;13.662;2022-12-18T01:33:41;9.20;;;3.97;;
25163;SDS011;13440;50.860;13.662;2022-12-18T01:36:07;9.82;;;3.78;;
25163;SDS011;13440;50.860;13.662;2022-12-18T01:38:33;8.82;;;4.07;;
25163;SDS011;13440;50.860;13.662;2022-12-18T01:41:00;9.98;;;4.28;;
25163;SDS011;13440;50.860;13.662;2022-12-18T01:43:43;8.52;;;4.25;;
25163;SDS011;13440;50.860;13.662;2022-12-18T01:46:20;10.65;;;4.38;;
25163;SDS011;13440;50.860;13.662;2022-12-18T01:48:48;10.15;;;4.45;;
25163;SDS011;13440;50.860;13.662;2022-12-18T01:51:15;9.65;;;3.75;;
25163;SDS011;13440;50.860;13.662;2022-12-18T01:53:41;8.05;;;4.00;;
25163;SDS011;13440;50.860;13.662;2022-12-18T01:56:07;7.93;;;4.00;;
25163;SDS011;13440;50.860;13.662;2022-12-18T02:01:25;9.27;;;4.28;;
25163;SDS011;13440;50.860;13.662;2022-12-18T02:03:50;7.88;;;3.78;;
25163;SDS011;13440;50.860;13.662;2022-12-18T02:06:36;9.25;;;4.18;;
25163;SDS011;13440;50.860;13.662;2022-12-18T02:09:07;8.55;;;3.90;;
25163;SDS011;13440;50.860;13.662;2022-12-18T02:14:38;10.00;;;4.15;;
25163;SDS011;13440;50.860;13.662;2022-12-18T02:22:48;10.35;;;4.35;;
25163;SDS011;13440;50.860;13.662;2022-12-18T02:25:25;8.77;;;3.88;;
25163;SDS011;13440;50.860;13.662;2022-12-18T02:27:53;9.95;;;3.88;;
25163;SDS011;13440;50.860;13.662;2022-12-18T02:30:20;8.77;;;4.10;;
25163;SDS011;13440;50.860;13.662;2022-12-18T02:32:49;7.63;;;4.05;;
25163;SDS011;13440;50.860;13.662;2022-12-18T02:35:17;9.80;;;4.10;;
25163;SDS011;13440;50.860;13.662;2022-12-18T02:37:47;10.55;;;4.15;;
25163;SDS011;13440;50.860;13.662;2022-12-18T02:40:13;9.68;;;4.35;;
25163;SDS011;13440;50.860;13.662;2022-12-18T02:42:40;6.50;;;3.22;;
25163;SDS011;13440;50.860;13.662;2022-12-18T02:45:07;7.47;;;3.38;;
25163;SDS011;13440;50.860;13.662;2022-12-18T02:47:36;7.20;;;3.45;;
25163;SDS011;13440;50.860;13.662;2022-12-18T02:50:18;7.65;;;3.72;;
25163;SDS011;13440;50.860;13.662;2022-12-18T02:52:58;9.27;;;4.20;;
25163;SDS011;13440;50.860;13.662;2022-12-18T02:55:49;9.27;;;3.63;;
25163;SDS011;13440;50.860;13.662;2022-12-18T02:58:45;8.13;;;3.90;;
25163;SDS011;13440;50.860;13.662;2022-12-18T03:01:33;9.10;;;4.00;;
25163;SDS011;13440;50.860;13.662;2022-12-18T03:06:41;4.28;;;2.78;;
25163;SDS011;13440;50.860;13.662;2022-12-18T03:09:12;7.30;;;3.20;;
25163;SDS011;13440;50.860;13.662;2022-12-18T03:11:41;6.88;;;3.40;;
25163;SDS011;13440;50.860;13.662;2022-12-18T03:14:29;7.75;;;3.63;;
25163;SDS011;13440;50.860;13.662;2022-12-18T03:16:57;7.32;;;3.38;;
25163;SDS011;13440;50.860;13.662;2022-12-18T03:19:25;8.48;;;3.53;;
25163;SDS011;13440;50.860;13.662;2022-12-18T03:21:57;8.57;;;3.50;;
25163;SDS011;13440;50.860;13.662;2022-12-18T03:24:24;8.45;;;4.00;;
25163;SDS011;13440;50.860;13.662;2022-12-18T03:26:52;6.18;;;3.10;;
25163;SDS011;13440;50.860;13.662;2022-12-18T03:32:18;8.68;;;3.25;;
25163;SDS011;13440;50.860;13.662;2022-12-18T03:34:49;5.38;;;3.03;;
25163;SDS011;13440;50.860;13.662;2022-12-18T03:37:18;7.65;;;3.42;;
25163;SDS011;13440;50.860;13.662;2022-12-18T03:39:44;7.22;;;3.67;;
25163;SDS011;13440;50.860;13.662;2022-12-18T03:44:55;7.00;;;3.45;;
25163;SDS011;13440;50.860;13.662;2022-12-18T03:47:27;5.22;;;3.55;;
25163;SDS011;13440;50.860;13.662;2022-12-18T03:52:41;8.93;;;4.05;;
25163;SDS011;13440;50.860;13.662;2022-12-18T03:55:09;8.05;;;3.60;;
25163;SDS011;13440;50.860;13.662;2022-12-18T03:57:37;7.68;;;3.80;;
25163;SDS011;13440;50.860;13.662;2022-12-18T04:00:06;6.80;;;3.30;;
25163;SDS011;13440;50.860;13.662;2022-12-18T04:02:42;8.65;;;4.38;;
25163;SDS011;13440;50.860;13.662;2022-12-18T04:05:13;6.75;;;3.60;;
25163;SDS011;13440;50.860;13.662;2022-12-18T04:07:41;8.32;;;3.85;;
25163;SDS011;13440;50.860;13.662;2022-12-18T04:10:11;8.80;;;3.70;;
25163;SDS011;13440;50.860;13.662;2022-12-18T04:12:37;7.22;;;3.78;;
25163;SDS011;13440;50.860;13.662;2022-12-18T04:15:04;7.10;;;3.50;;
25163;SDS011;13440;50.860;13.662;2022-12-18T04:17:30;7.60;;;3.58;;
25163;SDS011;13440;50.860;13.662;2022-12-18T04:19:56;7.93;;;3.72;;
25163;SDS011;13440;50.860;13.662;2022-12-18T04:22:23;6.20;;;3.53;;
25163;SDS011;13440;50.860;13.662;2022-12-18T04:24:53;8.73;;;3.85;;
25163;SDS011;13440;50.860;13.662;2022-12-18T04:27:27;7.03;;;3.38;;
25163;SDS011;13440;50.860;13.662;2022-12-18T04:29:53;10.95;;;4.10;;
25163;SDS011;13440;50.860;13.662;2022-12-18T04:32:19;8.65;;;4.38;;
25163;SDS011;13440;50.860;13.662;2022-12-18T04:34:46;9.40;;;4.28;;
25163;SDS011;13440;50.860;13.662;2022-12-18T04:37:11;8.88;;;4.50;;
25163;SDS011;13440;50.860;13.662;2022-12-18T04:39:37;12.27;;;5.43;;
25163;SDS011;13440;50.860;13.662;2022-12-18T04:42:09;11.15;;;5.05;;
25163;SDS011;13440;50.860;13.662;2022-12-18T04:44:34;10.00;;;4.47;;
25163;SDS011;13440;50.860;13.662;2022-12-18T04:47:01;9.73;;;4.93;;
25163;SDS011;13440;50.860;13.662;2022-12-18T04:49:26;10.15;;;4.85;;
25163;SDS011;13440;50.860;13.662;2022-12-18T04:51:52;11.07;;;4.75;;
25163;SDS011;13440;50.860;13.662;2022-12-18T04:54:18;11.20;;;5.50;;
25163;SDS011;13440;50.860;13.662;2022-12-18T04:56:44;12.35;;;4.93;;
25163;SDS011;13440;50.860;13.662;2022-12-18T04:59:10;12.20;;;5.75;;
25163;SDS011;13440;50.860;13.662;2022-12-18T05:01:35;13.32;;;6.30;;
25163;SDS011;13440;50.860;13.662;2022-12-18T05:04:02;13.85;;;6.28;;
25163;SDS011;13440;50.860;13.662;2022-12-18T05:06:27;17.50;;;7.70;;
25163;SDS011;13440;50.860;13.662;2022-12-18T05:08:53;13.52;;;6.88;;
25163;SDS011;13440;50.860;13.662;2022-12-18T05:11:18;15.30;;;6.15;;
25163;SDS011;13440;50.860;13.662;2022-12-18T05:13:44;13.75;;;6.35;;
25163;SDS011;13440;50.860;13.662;2022-12-18T05:16:10;12.82;;;6.35;;
25163;SDS011;13440;50.860;13.662;2022-12-18T05:18:35;11.93;;;5.63;;
25163;SDS011;13440;50.860;13.662;2022-12-18T05:21:01;14.23;;;6.10;;
25163;SDS011;13440;50.860;13.662;2022-12-18T05:23:26;12.95;;;6.28;;
25163;SDS011;13440;50.860;13.662;2022-12-18T05:25:52;14.52;;;7.05;;
25163;SDS011;13440;50.860;13.662;2022-12-18T05:28:19;15.82;;;7.25;;
25163;SDS011;13440;50.860;13.662;2022-12-18T05:30:47;14.27;;;6.82;;
25163;SDS011;13440;50.860;13.662;2022-12-18T05:33:14;12.40;;;5.68;;
25163;SDS011;13440;50.860;13.662;2022-12-18T05:35:39;12.32;;;6.45;;
25163;SDS011;13440;50.860;13.662;2022-12-18T05:38:05;14.50;;;7.20;;
25163;SDS011;13440;50.860;13.662;2022-12-18T05:40:30;16.90;;;7.97;;
25163;SDS011;13440;50.860;13.662;2022-12-18T05:42:56;14.50;;;7.55;;
25163;SDS011;13440;50.860;13.662;2022-12-18T05:45:21;17.80;;;8.45;;
25163;SDS011;13440;50.860;13.662;2022-12-18T05:47:46;15.00;;;7.38;;
25163;SDS011;13440;50.860;13.662;2022-12-18T05:50:12;14.38;;;7.07;;
25163;SDS011;13440;50.860;13.662;2022-12-18T05:52:37;14.05;;;6.88;;
25163;SDS011;13440;50.860;13.662;2022-12-18T05:55:03;16.52;;;8.00;;
25163;SDS011;13440;50.860;13.662;2022-12-18T05:57:29;14.60;;;7.22;;
25163;SDS011;13440;50.860;13.662;2022-12-18T05:59:55;16.42;;;7.50;;
25163;SDS011;13440;50.860;13.662;2022-12-18T06:02:20;17.38;;;8.50;;
25163;SDS011;13440;50.860;13.662;2022-12-18T06:04:46;17.67;;;7.65;;
25163;SDS011;13440;50.860;13.662;2022-12-18T06:07:12;18.30;;;8.18;;
25163;SDS011;13440;50.860;13.662;2022-12-18T06:09:37;13.30;;;7.05;;
25163;SDS011;13440;50.860;13.662;2022-12-18T06:12:03;18.08;;;8.25;;
25163;SDS011;13440;50.860;13.662;2022-12-18T06:14:28;19.70;;;8.13;;
25163;SDS011;13440;50.860;13.662;2022-12-18T06:16:54;15.52;;;8.65;;
25163;SDS011;13440;50.860;13.662;2022-12-18T06:19:19;15.80;;;8.25;;
25163;SDS011;13440;50.860;13.662;2022-12-18T06:21:45;16.55;;;7.68;;
25163;SDS011;13440;50.860;13.662;2022-12-18T06:24:10;15.25;;;7.28;;
25163;SDS011;13440;50.860;13.662;2022-12-18T06:26:36;16.48;;;7.68;;
25163;SDS011;13440;50.860;13.662;2022-12-18T06:29:03;14.65;;;7.35;;
25163;SDS011;13440;50.860;13.662;2022-12-18T06:31:28;17.52;;;8.32;;
25163;SDS011;13440;50.860;13.662;2022-12-18T06:33:54;18.58;;;8.05;;
25163;SDS011;13440;50.860;13.662;2022-12-18T06:36:19;19.95;;;9.55;;
25163;SDS011;13440;50.860;13.662;2022-12-18T06:38:45;18.98;;;9.68;;
25163;SDS011;13440;50.860;13.662;2022-12-18T06:41:12;22.83;;;9.50;;
25163;SDS011;13440;50.860;13.662;2022-12-18T06:43:39;19.50;;;8.75;;
25163;SDS011;13440;50.860;13.662;2022-12-18T06:46:04;16.25;;;8.02;;
25163;SDS011;13440;50.860;13.662;2022-12-18T06:48:30;16.52;;;7.95;;
25163;SDS011;13440;50.860;13.662;2022-12-18T06:50:55;17.42;;;8.35;;
25163;SDS011;13440;50.860;13.662;2022-12-18T06:53:21;17.98;;;9.00;;
25163;SDS011;13440;50.860;13.662;2022-12-18T06:55:46;20.27;;;8.20;;
25163;SDS011;13440;50.860;13.662;2022-12-18T06:58:12;17.52;;;8.52;;
25163;SDS011;13440;50.860;13.662;2022-12-18T07:00:37;16.10;;;8.13;;
25163;SDS011;13440;50.860;13.662;2022-12-18T07:03:03;20.92;;;9.30;;
25163;SDS011;13440;50.860;13.662;2022-12-18T07:05:28;18.40;;;8.85;;
25163;SDS011;13440;50.860;13.662;2022-12-18T07:07:53;17.95;;;8.68;;
25163;SDS011;13440;50.860;13.662;2022-12-18T07:10:19;19.58;;;9.15;;
25163;SDS011;13440;50.860;13.662;2022-12-18T07:12:45;18.02;;;9.20;;
25163;SDS011;13440;50.860;13.662;2022-12-18T07:15:10;21.42;;;9.77;;
25163;SDS011;13440;50.860;13.662;2022-12-18T07:17:36;25.00;;;12.80;;
25163;SDS011;13440;50.860;13.662;2022-12-18T07:20:01;21.30;;;11.05;;
25163;SDS011;13440;50.860;13.662;2022-12-18T07:22:27;27.58;;;12.25;;
25163;SDS011;13440;50.860;13.662;2022-12-18T07:24:52;25.63;;;11.82;;
25163;SDS011;13440;50.860;13.662;2022-12-18T07:27:18;26.55;;;12.05;;
25163;SDS011;13440;50.860;13.662;2022-12-18T07:29:43;26.25;;;11.70;;
25163;SDS011;13440;50.860;13.662;2022-12-18T07:32:08;26.92;;;11.88;;
25163;SDS011;13440;50.860;13.662;2022-12-18T07:34:37;33.00;;;14.30;;
25163;SDS011;13440;50.860;13.662;2022-12-18T07:37:02;191.35;;;62.65;;
25163;SDS011;13440;50.860;13.662;2022-12-18T07:39:27;148.48;;;54.00;;
25163;SDS011;13440;50.860;13.662;2022-12-18T07:41:53;55.47;;;26.52;;
25163;SDS011;13440;50.860;13.662;2022-12-18T07:44:38;39.95;;;19.60;;
25163;SDS011;13440;50.860;13.662;2022-12-18T07:47:04;45.33;;;24.98;;
25163;SDS011;13440;50.860;13.662;2022-12-18T07:49:29;48.28;;;24.45;;
25163;SDS011;13440;50.860;13.662;2022-12-18T07:51:55;53.80;;;25.30;;
25163;SDS011;13440;50.860;13.662;2022-12-18T07:54:22;30.20;;;14.85;;
25163;SDS011;13440;50.860;13.662;2022-12-18T07:56:48;35.55;;;18.00;;
25163;SDS011;13440;50.860;13.662;2022-12-18T07:59:13;20.67;;;10.43;;
25163;SDS011;13440;50.860;13.662;2022-12-18T08:01:38;19.70;;;7.97;;
25163;SDS011;13440;50.860;13.662;2022-12-18T08:04:04;16.98;;;8.35;;
25163;SDS011;13440;50.860;13.662;2022-12-18T08:06:29;19.92;;;8.50;;
25163;SDS011;13440;50.860;13.662;2022-12-18T08:08:55;14.63;;;7.35;;
25163;SDS011;13440;50.860;13.662;2022-12-18T08:11:22;13.52;;;7.57;;
25163;SDS011;13440;50.860;13.662;2022-12-18T08:13:48;14.60;;;8.32;;
25163;SDS011;13440;50.860;13.662;2022-12-18T08:16:13;17.00;;;8.82;;
25163;SDS011;13440;50.860;13.662;2022-12-18T08:18:39;15.55;;;8.95;;
25163;SDS011;13440;50.860;13.662;2022-12-18T08:21:08;16.00;;;9.05;;
25163;SDS011;13440;50.860;13.662;2022-12-18T08:23:34;19.60;;;10.20;;
25163;SDS011;13440;50.860;13.662;2022-12-18T08:26:00;17.33;;;9.70;;
25163;SDS011;13440;50.860;13.662;2022-12-18T08:28:25;15.45;;;8.75;;
25163;SDS011;13440;50.860;13.662;2022-12-18T08:30:51;16.98;;;10.75;;
25163;SDS011;13440;50.860;13.662;2022-12-18T08:33:17;15.88;;;9.57;;
25163;SDS011;13440;50.860;13.662;2022-12-18T08:35:42;14.35;;;9.32;;
25163;SDS011;13440;50.860;13.662;2022-12-18T08:38:08;14.30;;;8.95;;
25163;SDS011;13440;50.860;13.662;2022-12-18T08:40:33;12.73;;;8.13;;
25163;SDS011;13440;50.860;13.662;2022-12-18T08:42:58;15.27;;;8.90;;
25163;SDS011;13440;50.860;13.662;2022-12-18T08:45:42;14.32;;;8.45;;
25163;SDS011;13440;50.860;13.662;2022-12-18T08:48:08;15.95;;;8.65;;
25163;SDS011;13440;50.860;13.662;2022-12-18T08:50:34;14.25;;;8.98;;
25163;SDS011;13440;50.860;13.662;2022-12-18T08:52:59;14.40;;;8.32;;
25163;SDS011;13440;50.860;13.662;2022-12-18T08:55:25;14.07;;;8.43;;
25163;SDS011;13440;50.860;13.662;2022-12-18T08:57:50;14.18;;;8.60;;
25163;SDS011;13440;50.860;13.662;2022-12-18T09:00:16;14.45;;;8.48;;
25163;SDS011;13440;50.860;13.662;2022-12-18T09:02:41;13.20;;;7.97;;
25163;SDS011;13440;50.860;13.662;2022-12-18T09:05:07;15.23;;;8.45;;
25163;SDS011;13440;50.860;13.662;2022-12-18T09:07:32;16.08;;;8.95;;
25163;SDS011;13440;50.860;13.662;2022-12-18T09:09:58;14.95;;;9.00;;
25163;SDS011;13440;50.860;13.662;2022-12-18T09:12:24;13.70;;;8.63;;
25163;SDS011;13440;50.860;13.662;2022-12-18T09:14:49;15.82;;;8.25;;
25163;SDS011;13440;50.860;13.662;2022-12-18T09:17:15;12.38;;;7.93;;
25163;SDS011;13440;50.860;13.662;2022-12-18T09:19:40;13.88;;;7.95;;
25163;SDS011;13440;50.860;13.662;2022-12-18T09:22:06;12.50;;;8.05;;
25163;SDS011;13440;50.860;13.662;2022-12-18T09:24:31;15.15;;;8.38;;
25163;SDS011;13440;50.860;13.662;2022-12-18T09:26:56;14.10;;;7.90;;
25163;SDS011;13440;50.860;13.662;2022-12-18T09:29:22;13.73;;;8.95;;
25163;SDS011;13440;50.860;13.662;2022-12-18T09:31:47;16.88;;;8.52;;
25163;SDS011;13440;50.860;13.662;2022-12-18T09:34:14;15.75;;;9.13;;
25163;SDS011;13440;50.860;13.662;2022-12-18T09:36:40;21.70;;;17.58;;
25163;SDS011;13440;50.860;13.662;2022-12-18T09:39:05;13.05;;;8.10;;
25163;SDS011;13440;50.860;13.662;2022-12-18T09:44:09;14.85;;;9.43;;
25163;SDS011;13440;50.860;13.662;2022-12-18T09:46:41;15.35;;;8.82;;
25163;SDS011;13440;50.860;13.662;2022-12-18T09:49:14;13.55;;;7.22;;
25163;SDS011;13440;50.860;13.662;2022-12-18T09:51:45;14.38;;;7.32;;
25163;SDS011;13440;50.860;13.662;2022-12-18T09:54:15;9.82;;;6.18;;
25163;SDS011;13440;50.860;13.662;2022-12-18T09:56:43;12.52;;;6.75;;
25163;SDS011;13440;50.860;13.662;2022-12-18T09:59:18;11.13;;;6.68;;
25163;SDS011;13440;50.860;13.662;2022-12-18T10:01:46;12.73;;;7.18;;
25163;SDS011;13440;50.860;13.662;2022-12-18T10:04:12;13.20;;;6.97;;
25163;SDS011;13440;50.860;13.662;2022-12-18T10:06:43;11.52;;;6.88;;
25163;SDS011;13440;50.860;13.662;2022-12-18T10:14:57;15.23;;;8.55;;
25163;SDS011;13440;50.860;13.662;2022-12-18T10:17:41;13.82;;;9.48;;
25163;SDS011;13440;50.860;13.662;2022-12-18T10:20:18;14.45;;;10.80;;
25163;SDS011;13440;50.860;13.662;2022-12-18T10:23:04;13.73;;;10.52;;
25163;SDS011;13440;50.860;13.662;2022-12-18T10:28:17;15.07;;;11.30;;
25163;SDS011;13440;50.860;13.662;2022-12-18T10:30:44;12.50;;;9.00;;
25163;SDS011;13440;50.860;13.662;2022-12-18T10:33:17;11.27;;;7.45;;
25163;SDS011;13440;50.860;13.662;2022-12-18T10:35:44;8.63;;;6.07;;
25163;SDS011;13440;50.860;13.662;2022-12-18T10:40:52;7.68;;;5.45;;
25163;SDS011;13440;50.860;13.662;2022-12-18T10:43:26;8.77;;;5.32;;
25163;SDS011;13440;50.860;13.662;2022-12-18T10:51:28;8.35;;;5.05;;
25163;SDS011;13440;50.860;13.662;2022-12-18T10:56:23;7.32;;;4.57;;
25163;SDS011;13440;50.860;13.662;2022-12-18T10:58:55;8.30;;;5.10;;
25163;SDS011;13440;50.860;13.662;2022-12-18T11:01:22;6.45;;;4.40;;
25163;SDS011;13440;50.860;13.662;2022-12-18T11:06:20;6.25;;;4.20;;
25163;SDS011;13440;50.860;13.662;2022-12-18T11:08:58;7.05;;;4.50;;
25163;SDS011;13440;50.860;13.662;2022-12-18T11:11:28;6.03;;;3.97;;
25163;SDS011;13440;50.860;13.662;2022-12-18T11:16:22;6.82;;;4.40;;
25163;SDS011;13440;50.860;13.662;2022-12-18T11:18:48;7.15;;;4.18;;
25163;SDS011;13440;50.860;13.662;2022-12-18T11:21:14;8.98;;;4.82;;
25163;SDS011;13440;50.860;13.662;2022-12-18T11:23:50;6.78;;;4.28;;
25163;SDS011;13440;50.860;13.662;2022-12-18T11:26:16;6.55;;;4.05;;
25163;SDS011;13440;50.860;13.662;2022-12-18T11:31:32;7.50;;;4.05;;
25163;SDS011;13440;50.860;13.662;2022-12-18T11:34:00;8.55;;;4.20;;
25163;SDS011;13440;50.860;13.662;2022-12-18T11:36:28;8.85;;;4.60;;
25163;SDS011;13440;50.860;13.662;2022-12-18T11:38:59;9.20;;;4.78;;
25163;SDS011;13440;50.860;13.662;2022-12-18T11:41:32;6.50;;;4.03;;
25163;SDS011;13440;50.860;13.662;2022-12-18T11:44:27;8.45;;;4.30;;
25163;SDS011;13440;50.860;13.662;2022-12-18T11:47:37;7.03;;;4.22;;
25163;SDS011;13440;50.860;13.662;2022-12-18T11:50:01;7.65;;;3.80;;
25163;SDS011;13440;50.860;13.662;2022-12-18T11:52:31;7.05;;;4.22;;
25163;SDS011;13440;50.860;13.662;2022-12-18T11:55:04;6.47;;;3.75;;
25163;SDS011;13440;50.860;13.662;2022-12-18T12:00:21;7.18;;;4.28;;
25163;SDS011;13440;50.860;13.662;2022-12-18T12:08:17;7.68;;;4.03;;
25163;SDS011;13440;50.860;13.662;2022-12-18T12:10:54;7.60;;;4.05;;
25163;SDS011;13440;50.860;13.662;2022-12-18T12:18:49;7.40;;;4.65;;
25163;SDS011;13440;50.860;13.662;2022-12-18T12:21:50;7.60;;;4.22;;
25163;SDS011;13440;50.860;13.662;2022-12-18T12:24:57;6.30;;;3.83;;
25163;SDS011;13440;50.860;13.662;2022-12-18T12:27:38;10.38;;;4.07;;
25163;SDS011;13440;50.860;13.662;2022-12-18T12:32:45;8.55;;;4.95;;
25163;SDS011;13440;50.860;13.662;2022-12-18T12:38:23;8.60;;;4.38;;
25163;SDS011;13440;50.860;13.662;2022-12-18T12:40:56;9.25;;;4.75;;
25163;SDS011;13440;50.860;13.662;2022-12-18T12:48:36;13.80;;;6.30;;
25163;SDS011;13440;50.860;13.662;2022-12-18T12:51:22;10.38;;;5.13;;
25163;SDS011;13440;50.860;13.662;2022-12-18T12:53:50;12.02;;;5.47;;
25163;SDS011;13440;50.860;13.662;2022-12-18T12:56:18;13.35;;;5.57;;
25163;SDS011;13440;50.860;13.662;2022-12-18T13:06:54;9.93;;;5.43;;
25163;SDS011;13440;50.860;13.662;2022-12-18T13:09:30;10.82;;;5.40;;
25163;SDS011;13440;50.860;13.662;2022-12-18T13:12:01;12.95;;;6.05;;
25163;SDS011;13440;50.860;13.662;2022-12-18T13:14:46;10.52;;;5.00;;
25163;SDS011;13440;50.860;13.662;2022-12-18T13:20:03;13.25;;;5.30;;
25163;SDS011;13440;50.860;13.662;2022-12-18T13:22:46;12.55;;;5.68;;
25163;SDS011;13440;50.860;13.662;2022-12-18T13:28:02;10.23;;;5.07;;
25163;SDS011;13440;50.860;13.662;2022-12-18T13:35:38;10.13;;;5.70;;
25163;SDS011;13440;50.860;13.662;2022-12-18T13:40:57;8.57;;;4.50;;
25163;SDS011;13440;50.860;13.662;2022-12-18T13:43:30;9.27;;;4.88;;
25163;SDS011;13440;50.860;13.662;2022-12-18T13:48:26;10.00;;;5.10;;
25163;SDS011;13440;50.860;13.662;2022-12-18T13:51:00;10.65;;;5.22;;
25163;SDS011;13440;50.860;13.662;2022-12-18T13:53:39;8.65;;;4.68;;
25163;SDS011;13440;50.860;13.662;2022-12-18T13:56:09;8.05;;;4.22;;
25163;SDS011;13440;50.860;13.662;2022-12-18T13:58:34;39.72;;;17.48;;
25163;SDS011;13440;50.860;13.662;2022-12-18T14:01:00;7.28;;;4.15;;
25163;SDS011;13440;50.860;13.662;2022-12-18T14:03:27;9.13;;;5.50;;
25163;SDS011;13440;50.860;13.662;2022-12-18T14:06:01;9.95;;;5.53;;
25163;SDS011;13440;50.860;13.662;2022-12-18T14:08:32;10.82;;;5.38;;
25163;SDS011;13440;50.860;13.662;2022-12-18T14:10:59;8.40;;;4.80;;
25163;SDS011;13440;50.860;13.662;2022-12-18T14:13:30;12.82;;;6.47;;
25163;SDS011;13440;50.860;13.662;2022-12-18T14:15:56;24.58;;;11.93;;
25163;SDS011;13440;50.860;13.662;2022-12-18T14:20:49;16.58;;;8.93;;
25163;SDS011;13440;50.860;13.662;2022-12-18T14:26:23;35.03;;;19.02;;
25163;SDS011;13440;50.860;13.662;2022-12-18T14:28:48;33.13;;;17.23;;
25163;SDS011;13440;50.860;13.662;2022-12-18T14:31:18;26.42;;;14.93;;
25163;SDS011;13440;50.860;13.662;2022-12-18T14:33:44;28.63;;;19.02;;
25163;SDS011;13440;50.860;13.662;2022-12-18T14:36:44;18.80;;;13.00;;
25163;SDS011;13440;50.860;13.662;2022-12-18T14:39:01;11.30;;;6.90;;
25163;SDS011;13440;50.860;13.662;2022-12-18T14:41:27;11.82;;;6.55;;
25163;SDS011;13440;50.860;13.662;2022-12-18T14:43:54;11.95;;;6.63;;
25163;SDS011;13440;50.860;13.662;2022-12-18T14:46:35;11.00;;;5.88;;
25163;SDS011;13440;50.860;13.662;2022-12-18T14:49:22;13.00;;;6.30;;
25163;SDS011;13440;50.860;13.662;2022-12-18T14:51:56;9.98;;;5.72;;
25163;SDS011;13440;50.860;13.662;2022-12-18T14:54:26;13.05;;;6.30;;
25163;SDS011;13440;50.860;13.662;2022-12-18T14:56:56;13.55;;;6.18;;
25163;SDS011;13440;50.860;13.662;2022-12-18T14:59:46;14.63;;;6.90;;
25163;SDS011;13440;50.860;13.662;2022-12-18T15:05:15;16.17;;;7.97;;
25163;SDS011;13440;50.860;13.662;2022-12-18T15:07:44;17.02;;;7.95;;
25163;SDS011;13440;50.860;13.662;2022-12-18T15:10:12;13.07;;;6.97;;
25163;SDS011;13440;50.860;13.662;2022-12-18T15:12:46;16.88;;;8.15;;
25163;SDS011;13440;50.860;13.662;2022-12-18T15:18:15;19.17;;;8.02;;
25163;SDS011;13440;50.860;13.662;2022-12-18T15:20:45;15.68;;;7.90;;
25163;SDS011;13440;50.860;13.662;2022-12-18T15:23:25;19.98;;;9.43;;
25163;SDS011;13440;50.860;13.662;2022-12-18T15:25:56;15.77;;;7.53;;
25163;SDS011;13440;50.860;13.662;2022-12-18T15:28:35;18.52;;;8.38;;
25163;SDS011;13440;50.860;13.662;2022-12-18T15:33:36;17.90;;;9.35;;
25163;SDS011;13440;50.860;13.662;2022-12-18T15:36:04;16.85;;;7.93;;
25163;SDS011;13440;50.860;13.662;2022-12-18T15:38:33;17.48;;;8.57;;
25163;SDS011;13440;50.860;13.662;2022-12-18T15:40:58;19.13;;;9.20;;
25163;SDS011;13440;50.860;13.662;2022-12-18T15:43:24;17.08;;;8.35;;
25163;SDS011;13440;50.860;13.662;2022-12-18T15:46:00;16.02;;;8.10;;
25163;SDS011;13440;50.860;13.662;2022-12-18T15:48:30;15.60;;;8.07;;
25163;SDS011;13440;50.860;13.662;2022-12-18T15:50:57;17.45;;;7.78;;
25163;SDS011;13440;50.860;13.662;2022-12-18T15:53:24;21.02;;;8.63;;
25163;SDS011;13440;50.860;13.662;2022-12-18T15:55:50;18.27;;;7.70;;
25163;SDS011;13440;50.860;13.662;2022-12-18T16:01:00;16.77;;;7.38;;
25163;SDS011;13440;50.860;13.662;2022-12-18T16:03:26;19.38;;;8.75;;
25163;SDS011;13440;50.860;13.662;2022-12-18T16:05:51;15.45;;;6.68;;
25163;SDS011;13440;50.860;13.662;2022-12-18T16:08:17;12.95;;;6.40;;
25163;SDS011;13440;50.860;13.662;2022-12-18T16:10:42;15.02;;;6.88;;
25163;SDS011;13440;50.860;13.662;2022-12-18T16:13:09;14.82;;;6.90;;
25163;SDS011;13440;50.860;13.662;2022-12-18T16:15:36;13.05;;;6.43;;
25163;SDS011;13440;50.860;13.662;2022-12-18T16:18:01;12.52;;;6.63;;
25163;SDS011;13440;50.860;13.662;2022-12-18T16:20:26;12.50;;;6.18;;
25163;SDS011;13440;50.860;13.662;2022-12-18T16:22:52;12.50;;;5.70;;
25163;SDS011;13440;50.860;13.662;2022-12-18T16:25:25;11.02;;;5.53;;
25163;SDS011;13440;50.860;13.662;2022-12-18T16:27:52;11.60;;;6.10;;
25163;SDS011;13440;50.860;13.662;2022-12-18T16:30:21;12.20;;;5.35;;